createdAt,value
2017-12-02T00:00:47.434Z,20.87
2017-12-02T00:01:48.069Z,20.84
2017-12-02T00:03:48.859Z,20.74
2017-12-02T00:06:50.296Z,20.57
2017-12-02T00:07:50.934Z,20.51
2017-12-02T00:08:51.249Z,20.45
2017-12-02T00:10:52.198Z,20.31
2017-12-02T00:11:52.681Z,20.22
2017-12-02T00:12:53.156Z,20.14
2017-12-02T00:13:53.633Z,20.07
2017-12-02T00:15:54.586Z,19.92
2017-12-02T00:16:55.062Z,19.84
2017-12-02T00:17:55.583Z,19.76
2017-12-02T00:18:56.043Z,19.70
2017-12-02T00:20:08.296Z,19.64
2017-12-02T00:20:56.968Z,19.58
2017-12-02T00:21:57.436Z,19.51
2017-12-02T00:23:58.395Z,19.39
2017-12-02T00:24:58.920Z,19.34
2017-12-02T00:28:00.296Z,19.19
2017-12-02T00:29:00.767Z,19.14
2017-12-02T00:30:01.485Z,19.09
2017-12-02T00:32:02.196Z,19.01
2017-12-02T00:33:02.663Z,18.97
2017-12-02T00:35:15.156Z,18.89
2017-12-02T00:37:04.571Z,18.83
2017-12-02T00:39:05.517Z,18.77
2017-12-02T00:40:06.036Z,18.74
2017-12-02T00:41:06.465Z,18.72
2017-12-02T00:44:07.881Z,18.64
2017-12-02T00:45:20.143Z,18.62
2017-12-02T00:46:08.835Z,18.60
2017-12-02T00:47:09.309Z,18.57
2017-12-02T00:48:09.783Z,18.55
2017-12-02T00:49:10.255Z,18.52
2017-12-02T00:50:10.780Z,18.50
2017-12-02T00:51:11.200Z,18.48
2017-12-02T00:52:11.842Z,18.45
2017-12-02T00:53:12.199Z,18.43
2017-12-02T00:54:12.622Z,18.42
2017-12-02T00:55:13.191Z,18.40
2017-12-02T00:56:13.570Z,18.38
2017-12-02T00:59:14.989Z,18.32
2017-12-02T01:02:16.401Z,18.26
2017-12-02T01:03:16.881Z,18.24
2017-12-02T01:04:17.354Z,18.23
2017-12-02T01:05:17.877Z,18.21
2017-12-02T01:06:18.319Z,18.20
2017-12-02T01:08:19.245Z,18.17
2017-12-02T01:09:19.714Z,18.14
2017-12-02T01:10:20.241Z,18.13
2017-12-02T01:11:20.663Z,18.11
2017-12-02T01:12:21.136Z,18.10
2017-12-02T01:13:21.601Z,18.08
2017-12-02T01:14:22.081Z,18.07
2017-12-02T01:15:22.823Z,18.06
2017-12-02T01:16:23.026Z,18.04
2017-12-02T01:18:23.971Z,18.01
2017-12-02T01:19:24.444Z,17.99
2017-12-02T01:20:24.961Z,17.97
2017-12-02T01:21:25.552Z,17.96
2017-12-02T01:22:25.861Z,17.95
2017-12-02T01:24:26.801Z,17.97
2017-12-02T01:25:27.380Z,18.01
2017-12-02T01:26:27.751Z,18.05
2017-12-02T01:29:29.190Z,18.29
2017-12-02T01:30:41.176Z,18.39
2017-12-02T01:31:30.107Z,18.51
2017-12-02T01:32:30.587Z,18.65
2017-12-02T01:34:31.532Z,18.94
2017-12-02T01:36:32.480Z,19.24
2017-12-02T01:37:32.952Z,19.41
2017-12-02T01:38:33.427Z,19.59
2017-12-02T01:39:34.067Z,19.74
2017-12-02T01:41:34.849Z,20.05
2017-12-02T01:42:35.318Z,20.19
2017-12-02T01:43:35.800Z,20.32
2017-12-02T01:44:36.280Z,20.45
2017-12-02T01:46:37.226Z,20.62
2017-12-02T01:47:37.734Z,20.66
2017-12-02T01:48:38.186Z,20.69
2017-12-02T01:50:39.131Z,20.70
2017-12-02T01:52:40.085Z,20.66
2017-12-02T01:54:41.032Z,20.56
2017-12-02T01:56:42.256Z,20.44
2017-12-02T01:58:42.938Z,20.32
2017-12-02T01:59:43.821Z,20.26
2017-12-02T02:00:43.899Z,20.19
2017-12-02T02:01:56.215Z,20.12
2017-12-02T02:02:44.854Z,20.04
2017-12-02T02:03:45.328Z,19.96
2017-12-02T02:04:45.849Z,19.89
2017-12-02T02:05:46.274Z,19.82
2017-12-02T02:06:46.879Z,19.74
2017-12-02T02:07:47.233Z,19.67
2017-12-02T02:08:47.769Z,19.61
2017-12-02T02:09:48.185Z,19.55
2017-12-02T02:10:48.655Z,19.48
2017-12-02T02:12:49.638Z,19.37
2017-12-02T02:13:50.089Z,19.31
2017-12-02T02:15:51.042Z,19.19
2017-12-02T02:18:04.235Z,19.08
2017-12-02T02:18:52.466Z,19.04
2017-12-02T02:19:52.985Z,18.99
2017-12-02T02:20:53.805Z,18.95
2017-12-02T02:21:53.884Z,18.91
2017-12-02T02:22:54.416Z,18.87
2017-12-02T02:23:54.842Z,18.82
2017-12-02T02:24:55.309Z,18.77
2017-12-02T02:25:55.824Z,18.73
2017-12-02T02:26:56.264Z,18.69
2017-12-02T02:28:08.274Z,18.65
2017-12-02T02:28:57.212Z,18.62
2017-12-02T02:29:57.679Z,18.58
2017-12-02T02:30:58.322Z,18.55
2017-12-02T02:31:58.801Z,18.52
2017-12-02T02:32:59.159Z,18.48
2017-12-02T02:33:59.582Z,18.45
2017-12-02T02:35:00.056Z,18.43
2017-12-02T02:36:00.549Z,18.39
2017-12-02T02:37:00.997Z,18.37
2017-12-02T02:39:01.991Z,18.32
2017-12-02T02:40:02.423Z,18.31
2017-12-02T02:41:02.918Z,18.27
2017-12-02T02:42:03.370Z,18.25
2017-12-02T02:44:04.348Z,18.22
2017-12-02T02:45:04.797Z,18.21
2017-12-02T02:46:05.345Z,18.19
2017-12-02T02:47:05.729Z,18.17
2017-12-02T02:48:18.461Z,18.15
2017-12-02T02:49:06.707Z,18.14
2017-12-02T02:50:07.153Z,18.12
2017-12-02T02:51:07.628Z,18.11
2017-12-02T02:52:08.093Z,18.09
2017-12-02T02:53:08.696Z,18.08
2017-12-02T02:54:09.045Z,18.07
2017-12-02T02:55:09.518Z,18.06
2017-12-02T02:56:09.984Z,18.04
2017-12-02T02:58:10.986Z,18.01
2017-12-02T02:59:11.433Z,17.99
2017-12-02T03:00:11.881Z,17.98
2017-12-02T03:02:12.985Z,17.95
2017-12-02T03:03:13.342Z,17.93
2017-12-02T03:04:13.770Z,17.92
2017-12-02T03:05:14.243Z,17.91
2017-12-02T03:06:14.881Z,17.91
2017-12-02T03:07:15.191Z,17.91
2017-12-02T03:08:27.290Z,17.93
2017-12-02T03:09:16.125Z,17.97
2017-12-02T03:10:16.604Z,18.02
2017-12-02T03:11:17.240Z,18.09
2017-12-02T03:12:17.549Z,18.18
2017-12-02T03:13:18.122Z,18.28
2017-12-02T03:15:18.967Z,18.49
2017-12-02T03:16:19.440Z,18.62
2017-12-02T03:17:19.913Z,18.75
2017-12-02T03:20:21.376Z,19.20
2017-12-02T03:21:21.849Z,19.36
2017-12-02T03:22:22.285Z,19.53
2017-12-02T03:23:22.804Z,19.69
2017-12-02T03:24:23.279Z,19.86
2017-12-02T03:25:23.702Z,20.02
2017-12-02T03:27:24.645Z,20.32
2017-12-02T03:28:25.121Z,20.43
2017-12-02T03:30:26.079Z,20.60
2017-12-02T03:31:26.555Z,20.67
2017-12-02T03:32:27.024Z,20.70
2017-12-02T03:33:27.506Z,20.71
2017-12-02T03:34:28.033Z,20.72
2017-12-02T03:35:28.459Z,20.70
2017-12-02T03:38:29.884Z,20.60
2017-12-02T03:39:41.287Z,20.55
2017-12-02T03:41:31.477Z,20.44
2017-12-02T03:42:31.820Z,20.36
2017-12-02T03:45:33.226Z,20.14
2017-12-02T03:46:33.749Z,20.06
2017-12-02T03:48:34.654Z,19.91
2017-12-02T03:49:35.129Z,19.85
2017-12-02T03:50:47.344Z,19.77
2017-12-02T03:51:36.076Z,19.71
2017-12-02T03:53:37.035Z,19.59
2017-12-02T03:54:37.510Z,19.53
2017-12-02T03:55:38.044Z,19.47
2017-12-02T03:56:38.462Z,19.41
2017-12-02T03:57:38.938Z,19.36
2017-12-02T03:58:39.435Z,19.31
2017-12-02T03:59:39.882Z,19.25
2017-12-02T04:00:40.504Z,19.20
2017-12-02T04:01:40.840Z,19.16
2017-12-02T04:02:41.474Z,19.11
2017-12-02T04:06:43.207Z,18.94
2017-12-02T04:07:43.688Z,18.90
2017-12-02T04:08:44.235Z,18.86
2017-12-02T04:10:45.156Z,18.78
2017-12-02T04:11:45.613Z,18.76
2017-12-02T04:13:46.534Z,18.70
2017-12-02T04:14:47.031Z,18.67
2017-12-02T04:15:48.391Z,18.64
2017-12-02T04:16:47.956Z,18.61
2017-12-02T04:17:48.424Z,18.58
2017-12-02T04:19:49.371Z,18.52
2017-12-02T04:20:49.903Z,18.50
2017-12-02T04:21:50.330Z,18.47
2017-12-02T04:22:50.801Z,18.44
2017-12-02T04:23:51.272Z,18.42
2017-12-02T04:24:51.739Z,18.39
2017-12-02T04:27:53.165Z,18.32
2017-12-02T04:28:53.640Z,18.30
2017-12-02T04:29:54.116Z,18.28
2017-12-02T04:30:54.635Z,18.25
2017-12-02T04:31:55.216Z,18.23
2017-12-02T04:32:55.531Z,18.21
2017-12-02T04:33:55.998Z,18.20
2017-12-02T04:34:56.564Z,18.18
2017-12-02T04:36:57.422Z,18.14
2017-12-02T04:37:57.895Z,18.13
2017-12-02T04:38:58.367Z,18.11
2017-12-02T04:39:58.840Z,18.10
2017-12-02T04:40:59.364Z,18.09
2017-12-02T04:41:59.786Z,18.08
2017-12-02T04:44:00.731Z,18.05
2017-12-02T04:46:01.721Z,18.02
2017-12-02T04:47:02.172Z,18.01
2017-12-02T04:48:02.623Z,18.00
2017-12-02T04:50:03.563Z,17.97
2017-12-02T04:51:04.089Z,17.96
2017-12-02T04:52:04.511Z,17.95
2017-12-02T04:53:04.984Z,17.95
2017-12-02T04:54:05.452Z,17.95
2017-12-02T04:55:05.928Z,17.97
2017-12-02T04:56:06.451Z,18.01
2017-12-02T04:57:06.874Z,18.06
2017-12-02T04:58:07.508Z,18.12
2017-12-02T04:59:07.818Z,18.20
2017-12-02T05:00:08.295Z,18.31
2017-12-02T05:01:20.401Z,18.41
2017-12-02T05:02:09.230Z,18.54
2017-12-02T05:04:10.182Z,18.82
2017-12-02T05:05:10.656Z,18.96
2017-12-02T05:06:11.231Z,19.12
2017-12-02T05:07:11.599Z,19.31
2017-12-02T05:09:12.550Z,19.66
2017-12-02T05:10:13.048Z,19.83
2017-12-02T05:11:13.601Z,19.99
2017-12-02T05:13:14.613Z,20.29
2017-12-02T05:14:14.924Z,20.43
2017-12-02T05:16:15.919Z,20.65
2017-12-02T05:17:16.351Z,20.72
2017-12-02T05:18:16.827Z,20.79
2017-12-02T05:20:17.773Z,20.82
2017-12-02T05:21:30.393Z,20.82
2017-12-02T05:23:19.209Z,20.75
2017-12-02T05:24:19.689Z,20.71
2017-12-02T05:25:20.190Z,20.65
2017-12-02T05:26:20.691Z,20.59
2017-12-02T05:27:21.110Z,20.51
2017-12-02T05:29:22.071Z,20.38
2017-12-02T05:30:22.549Z,20.31
2017-12-02T05:31:23.125Z,20.23
2017-12-02T05:34:24.456Z,19.99
2017-12-02T05:35:24.970Z,19.91
2017-12-02T05:39:26.865Z,19.61
2017-12-02T05:44:29.216Z,19.29
2017-12-02T05:45:29.689Z,19.23
2017-12-02T05:46:30.193Z,19.17
2017-12-02T05:50:32.069Z,18.96
2017-12-02T05:51:32.544Z,18.91
2017-12-02T05:52:33.012Z,18.87
2017-12-02T05:53:33.522Z,18.83
2017-12-02T05:54:33.991Z,18.78
2017-12-02T05:55:34.443Z,18.74
2017-12-02T05:56:34.940Z,18.70
2017-12-02T05:57:35.395Z,18.65
2017-12-02T05:58:35.911Z,18.62
2017-12-02T05:59:36.340Z,18.58
2017-12-02T06:00:36.814Z,18.56
2017-12-02T06:01:37.294Z,18.52
2017-12-02T06:02:37.762Z,18.48
2017-12-02T06:03:38.286Z,18.45
2017-12-02T06:05:39.208Z,18.41
2017-12-02T06:06:39.687Z,18.38
2017-12-02T06:07:40.132Z,18.35
2017-12-02T06:08:40.647Z,18.33
2017-12-02T06:09:41.107Z,18.31
2017-12-02T06:10:41.589Z,18.28
2017-12-02T06:12:42.497Z,18.24
2017-12-02T06:13:43.021Z,18.21
2017-12-02T06:15:43.910Z,18.18
2017-12-02T06:16:44.554Z,18.16
2017-12-02T06:17:44.862Z,18.14
2017-12-02T06:18:45.387Z,18.13
2017-12-02T06:19:45.803Z,18.11
2017-12-02T06:20:46.452Z,18.10
2017-12-02T06:21:46.776Z,18.08
2017-12-02T06:22:47.231Z,18.07
2017-12-02T06:24:48.342Z,18.03
2017-12-02T06:25:48.646Z,18.03
2017-12-02T06:26:49.112Z,18.01
2017-12-02T06:28:50.273Z,17.97
2017-12-02T06:29:50.536Z,17.95
2017-12-02T06:30:51.021Z,17.94
2017-12-02T06:32:51.953Z,17.90
2017-12-02T06:33:52.522Z,17.89
2017-12-02T06:34:52.898Z,17.89
2017-12-02T06:35:53.369Z,17.88
2017-12-02T06:36:53.842Z,17.89
2017-12-02T06:37:54.348Z,17.91
2017-12-02T06:38:54.831Z,17.94
2017-12-02T06:39:55.258Z,18.00
2017-12-02T06:40:55.731Z,18.07
2017-12-02T06:41:56.204Z,18.15
2017-12-02T06:42:56.670Z,18.25
2017-12-02T06:43:57.199Z,18.36
2017-12-02T06:44:57.621Z,18.48
2017-12-02T06:45:58.118Z,18.61
2017-12-02T06:46:58.561Z,18.73
2017-12-02T06:47:59.045Z,18.88
2017-12-02T06:48:59.565Z,19.04
2017-12-02T06:49:59.985Z,19.22
2017-12-02T06:51:00.458Z,19.39
2017-12-02T06:52:00.937Z,19.56
2017-12-02T06:53:01.407Z,19.72
2017-12-02T06:54:13.514Z,19.88
2017-12-02T06:55:02.358Z,20.03
2017-12-02T06:56:02.832Z,20.18
2017-12-02T06:57:03.308Z,20.30
2017-12-02T06:58:03.794Z,20.43
2017-12-02T06:59:04.310Z,20.53
2017-12-02T07:00:04.727Z,20.62
2017-12-02T07:01:05.240Z,20.68
2017-12-02T07:02:05.687Z,20.73
2017-12-02T07:03:06.163Z,20.77
2017-12-02T07:04:06.690Z,20.78
2017-12-02T07:05:07.118Z,20.78
2017-12-02T07:06:07.595Z,20.77
2017-12-02T07:07:08.068Z,20.75
2017-12-02T07:08:08.539Z,20.72
2017-12-02T07:09:09.073Z,20.68
2017-12-02T07:10:09.500Z,20.63
2017-12-02T07:11:10.198Z,20.59
2017-12-02T07:12:10.453Z,20.53
2017-12-02T07:13:10.930Z,20.47
2017-12-02T07:14:11.509Z,20.41
2017-12-02T07:15:11.887Z,20.34
2017-12-02T07:16:12.360Z,20.27
2017-12-02T07:17:12.838Z,20.20
2017-12-02T07:20:14.295Z,20.00
2017-12-02T07:21:14.737Z,19.94
2017-12-02T07:22:15.221Z,19.89
2017-12-02T07:23:15.697Z,19.84
2017-12-02T07:24:16.217Z,19.78
2017-12-02T07:25:16.650Z,19.74
2017-12-02T07:27:17.633Z,19.66
2017-12-02T07:28:18.077Z,19.63
2017-12-02T07:29:18.597Z,19.60
2017-12-02T07:33:20.456Z,19.51
2017-12-02T07:34:21.034Z,19.50
2017-12-02T07:35:21.409Z,19.50
2017-12-02T07:36:21.883Z,19.49
2017-12-02T07:37:22.353Z,19.49
2017-12-02T07:38:22.835Z,19.50
2017-12-02T07:40:23.837Z,19.51
2017-12-02T07:43:25.213Z,19.55
2017-12-02T07:45:26.157Z,19.58
2017-12-02T07:46:26.640Z,19.59
2017-12-02T07:48:27.584Z,19.61
2017-12-02T07:49:28.146Z,19.61
2017-12-02T07:52:29.485Z,19.63
2017-12-02T07:53:29.967Z,19.62
2017-12-02T07:54:30.565Z,19.62
2017-12-02T07:55:30.918Z,19.61
2017-12-02T07:57:31.878Z,19.61
2017-12-02T07:58:32.344Z,19.60
2017-12-02T07:59:32.863Z,19.58
2017-12-02T08:00:33.293Z,19.58
2017-12-02T08:01:33.768Z,19.56
2017-12-02T08:02:34.236Z,19.55
2017-12-02T08:03:34.718Z,19.54
2017-12-02T08:04:35.294Z,19.52
2017-12-02T08:06:36.136Z,19.48
2017-12-02T08:07:36.641Z,19.46
2017-12-02T08:08:37.140Z,19.44
2017-12-02T08:10:38.040Z,19.39
2017-12-02T08:11:38.516Z,19.37
2017-12-02T08:13:39.464Z,19.34
2017-12-02T08:14:39.939Z,19.33
2017-12-02T08:15:40.414Z,19.31
2017-12-02T08:17:41.361Z,19.27
2017-12-02T08:18:41.836Z,19.25
2017-12-02T08:20:42.836Z,19.23
2017-12-02T08:21:43.259Z,19.21
2017-12-02T10:12:00.600Z,6.13
2017-12-02T10:12:57.786Z,5.73
2017-12-02T10:14:09.510Z,5.00
2017-12-02T10:14:58.686Z,4.27
2017-12-02T10:15:59.133Z,3.63
2017-12-02T10:16:59.582Z,3.09
2017-12-02T10:20:00.934Z,1.96
2017-12-02T10:21:01.386Z,1.72
2017-12-02T10:24:02.786Z,1.28
2017-12-02T10:25:03.190Z,1.24
2017-12-02T10:28:04.542Z,1.27
2017-12-02T10:30:05.451Z,1.44
2017-12-02T10:32:06.378Z,1.67
2017-12-02T10:33:06.835Z,1.81
2017-12-02T10:34:07.268Z,1.95
2017-12-02T10:35:07.729Z,2.13
2017-12-02T10:36:08.337Z,2.30
2017-12-02T10:37:08.633Z,2.50
2017-12-02T10:40:10.157Z,3.08
2017-12-02T10:41:10.449Z,3.27
2017-12-02T10:42:10.927Z,3.46
2017-12-02T10:43:11.370Z,3.65
2017-12-02T10:44:11.854Z,3.83
2017-12-02T10:45:12.278Z,4.00
2017-12-02T10:46:12.764Z,4.19
2017-12-02T10:47:13.234Z,4.35
2017-12-02T10:48:13.743Z,4.52
2017-12-02T10:49:14.117Z,4.70
2017-12-02T10:50:14.597Z,4.87
2017-12-02T10:52:15.892Z,5.19
2017-12-02T10:53:16.115Z,5.36
2017-12-02T10:54:16.415Z,5.50
2017-12-02T10:55:16.926Z,5.64
2017-12-02T10:56:17.329Z,5.78
2017-12-02T10:57:17.790Z,5.92
2017-12-02T10:58:18.257Z,6.06
2017-12-02T10:59:18.721Z,6.19
2017-12-02T11:00:19.339Z,6.33
2017-12-02T11:01:19.642Z,6.44
2017-12-02T11:02:20.098Z,6.57
2017-12-02T11:03:20.565Z,6.70
2017-12-02T11:05:21.491Z,6.92
2017-12-02T11:07:22.417Z,7.13
2017-12-02T11:08:22.873Z,7.24
2017-12-02T11:09:23.344Z,7.35
2017-12-02T11:11:24.325Z,7.54
2017-12-02T11:13:25.198Z,7.72
2017-12-02T11:14:25.662Z,7.81
2017-12-02T11:15:26.122Z,7.89
2017-12-02T11:18:27.560Z,8.11
2017-12-02T11:19:27.986Z,8.18
2017-12-02T11:20:28.478Z,8.25
2017-12-02T11:21:28.918Z,8.32
2017-12-02T11:22:29.382Z,8.39
2017-12-02T11:23:29.848Z,8.45
2017-12-02T11:24:30.346Z,8.51
2017-12-02T11:25:30.772Z,8.57
2017-12-02T11:26:31.272Z,8.63
2017-12-02T11:28:32.183Z,8.73
2017-12-02T11:31:33.576Z,8.90
2017-12-02T11:33:34.503Z,9.00
2017-12-02T11:34:34.999Z,9.04
2017-12-02T11:35:35.443Z,9.09
2017-12-02T11:36:35.913Z,9.14
2017-12-02T11:37:36.377Z,9.19
2017-12-02T11:38:36.896Z,9.23
2017-12-02T11:39:37.315Z,9.28
2017-12-02T11:40:37.776Z,9.32
2017-12-02T11:41:38.248Z,9.36
2017-12-02T11:42:38.716Z,9.40
2017-12-02T11:43:39.176Z,9.42
2017-12-02T11:44:39.644Z,9.46
2017-12-02T11:45:40.118Z,9.50
2017-12-02T11:46:40.745Z,9.54
2017-12-02T11:47:41.055Z,9.59
2017-12-02T11:49:41.989Z,9.65
2017-12-02T11:50:42.485Z,9.70
2017-12-02T11:51:42.925Z,9.72
2017-12-02T11:52:43.424Z,9.76
2017-12-02T11:53:43.856Z,9.80
2017-12-02T11:54:44.495Z,9.83
2017-12-02T11:55:44.800Z,9.87
2017-12-02T11:56:45.268Z,9.90
2017-12-02T11:57:45.740Z,9.94
2017-12-02T11:58:46.367Z,9.96
2017-12-02T11:59:46.718Z,9.99
2017-12-02T12:01:47.611Z,10.05
2017-12-02T12:02:48.081Z,10.08
2017-12-02T12:03:48.704Z,10.10
2017-12-02T12:05:49.509Z,10.16
2017-12-02T12:06:50.120Z,10.16
2017-12-02T12:07:50.428Z,10.19
2017-12-02T12:08:50.895Z,10.21
2017-12-02T12:09:51.357Z,10.22
2017-12-02T12:10:51.991Z,10.26
2017-12-02T12:11:52.309Z,10.26
2017-12-02T12:12:52.771Z,10.29
2017-12-02T12:14:53.754Z,10.35
2017-12-02T12:15:54.182Z,10.37
2017-12-02T12:16:54.666Z,10.41
2017-12-02T12:17:55.118Z,10.43
2017-12-02T12:18:55.590Z,10.45
2017-12-02T12:21:56.989Z,10.53
2017-12-02T12:22:57.490Z,10.56
2017-12-02T12:23:58.098Z,10.58
2017-12-02T12:24:58.458Z,10.61
2017-12-02T12:25:58.875Z,10.62
2017-12-02T12:26:59.347Z,10.65
2017-12-02T12:27:59.818Z,10.67
2017-12-02T12:29:00.287Z,10.68
2017-12-02T12:30:00.749Z,10.70
2017-12-02T12:32:01.696Z,10.73
2017-12-02T12:33:02.166Z,10.74
2017-12-02T12:34:02.637Z,10.75
2017-12-02T12:35:03.107Z,10.76
2017-12-02T12:36:03.577Z,10.78
2017-12-02T12:37:04.041Z,10.80
2017-12-02T12:38:04.517Z,10.81
2017-12-02T12:39:04.987Z,10.83
2017-12-02T12:40:05.513Z,10.85
2017-12-02T12:41:05.928Z,10.87
2017-12-02T12:42:06.430Z,10.88
2017-12-02T12:43:07.030Z,10.90
2017-12-02T12:44:07.334Z,10.91
2017-12-02T12:45:07.811Z,10.94
2017-12-02T12:46:08.282Z,10.95
2017-12-02T12:48:09.287Z,10.97
2017-12-02T12:49:09.692Z,10.98
2017-12-02T12:50:10.162Z,10.98
2017-12-02T12:51:10.631Z,10.99
2017-12-02T12:52:11.096Z,11.00
2017-12-02T12:53:11.592Z,11.01
2017-12-02T12:57:13.616Z,11.07
2017-12-02T12:58:13.931Z,11.06
2017-12-02T12:59:14.392Z,11.06
2017-12-02T13:00:14.870Z,11.07
2017-12-02T13:02:15.808Z,11.09
2017-12-02T13:03:16.273Z,11.09
2017-12-02T13:05:17.226Z,11.09
2017-12-02T13:06:17.741Z,11.10
2017-12-02T13:07:18.161Z,11.10
2017-12-02T13:08:18.662Z,11.11
2017-12-02T13:09:19.095Z,11.13
2017-12-02T13:11:20.095Z,11.14
2017-12-02T13:12:20.561Z,11.14
2017-12-02T13:13:20.994Z,11.16
2017-12-02T13:14:21.456Z,11.17
2017-12-02T13:15:21.960Z,11.17
2017-12-02T13:16:22.480Z,11.18
2017-12-02T13:17:22.867Z,11.17
2017-12-02T13:18:23.518Z,11.17
2017-12-02T13:20:24.308Z,11.17
2017-12-02T13:21:24.754Z,11.17
2017-12-02T13:22:25.222Z,11.18
2017-12-02T13:23:25.693Z,11.17
2017-12-02T13:24:26.164Z,11.17
2017-12-02T13:25:26.627Z,11.16
2017-12-02T13:26:38.742Z,11.16
2017-12-02T13:27:27.577Z,11.16
2017-12-02T13:31:29.454Z,11.16
2017-12-02T13:32:29.934Z,11.15
2017-12-02T13:34:30.872Z,11.13
2017-12-02T13:35:31.343Z,11.13
2017-12-02T13:36:31.808Z,11.12
2017-12-02T13:37:32.284Z,11.11
2017-12-02T13:39:33.225Z,11.11
2017-12-02T13:40:33.693Z,11.11
2017-12-02T13:41:34.230Z,11.11
2017-12-02T13:43:35.103Z,11.09
2017-12-02T13:44:35.742Z,11.07
2017-12-02T13:45:36.051Z,11.06
2017-12-02T13:47:36.986Z,11.04
2017-12-02T13:48:37.463Z,11.02
2017-12-02T13:50:38.430Z,10.98
2017-12-02T13:51:38.876Z,10.97
2017-12-02T13:52:39.397Z,10.96
2017-12-02T13:53:39.824Z,10.96
2017-12-02T13:54:40.283Z,10.94
2017-12-02T13:55:40.759Z,10.92
2017-12-02T13:58:42.164Z,10.88
2017-12-02T13:59:42.645Z,10.86
2017-12-02T14:00:43.106Z,10.86
2017-12-02T14:01:43.583Z,10.85
2017-12-02T14:02:44.054Z,10.82
2017-12-02T14:03:44.526Z,10.80
2017-12-02T14:05:45.623Z,10.76
2017-12-02T14:07:46.408Z,10.72
2017-12-02T14:08:46.904Z,10.70
2017-12-02T14:09:47.350Z,10.68
2017-12-02T14:10:47.869Z,10.68
2017-12-02T14:12:48.754Z,10.62
2017-12-02T14:13:49.230Z,10.61
2017-12-02T14:14:49.703Z,10.58
2017-12-02T14:15:50.332Z,10.56
2017-12-02T14:16:50.643Z,10.55
2017-12-02T14:17:51.165Z,10.53
2017-12-02T14:18:51.584Z,10.53
2017-12-02T14:19:52.049Z,10.52
2017-12-02T14:20:52.685Z,10.49
2017-12-02T14:21:52.995Z,10.47
2017-12-02T14:22:53.630Z,10.44
2017-12-02T14:23:53.930Z,10.42
2017-12-02T14:24:54.409Z,10.37
2017-12-02T14:25:54.876Z,10.34
2017-12-02T14:26:55.346Z,10.33
2017-12-02T14:27:56.028Z,10.32
2017-12-02T14:29:56.759Z,10.28
2017-12-02T14:30:57.221Z,10.26
2017-12-02T14:31:57.698Z,10.24
2017-12-02T14:33:58.637Z,10.20
2017-12-02T14:34:59.103Z,10.17
2017-12-02T14:35:59.579Z,10.15
2017-12-02T14:37:00.052Z,10.13
2017-12-02T14:38:11.801Z,10.09
2017-12-02T14:39:01.015Z,10.07
2017-12-02T14:41:01.929Z,10.04
2017-12-02T14:42:02.425Z,10.03
2017-12-02T14:43:02.870Z,10.02
2017-12-02T14:44:03.364Z,10.00
2017-12-02T14:45:03.834Z,9.98
2017-12-02T14:47:04.751Z,9.93
2017-12-02T14:48:05.214Z,9.91
2017-12-02T14:49:05.688Z,9.88
2017-12-02T14:51:06.628Z,9.83
2017-12-02T14:52:07.102Z,9.81
2017-12-02T14:53:07.562Z,9.80
2017-12-02T14:54:08.038Z,9.77
2017-12-02T14:55:08.510Z,9.75
2017-12-02T14:56:09.010Z,9.74
2017-12-02T14:57:09.448Z,9.71
2017-12-02T14:58:09.919Z,9.69
2017-12-02T14:59:10.391Z,9.66
2017-12-02T15:00:10.851Z,9.65
2017-12-02T15:01:11.325Z,9.62
2017-12-02T15:03:12.264Z,9.57
2017-12-02T15:04:12.728Z,9.55
2017-12-02T15:06:13.676Z,9.49
2017-12-02T15:07:14.142Z,9.46
2017-12-02T15:08:14.663Z,9.42
2017-12-02T15:09:15.082Z,9.39
2017-12-02T15:10:15.600Z,9.37
2017-12-02T15:11:16.016Z,9.33
2017-12-02T15:13:16.983Z,9.30
2017-12-02T15:14:17.429Z,9.28
2017-12-02T15:15:17.900Z,9.26
2017-12-02T15:16:18.367Z,9.23
2017-12-02T15:18:19.357Z,9.18
2017-12-02T15:19:19.774Z,9.16
2017-12-02T15:20:20.262Z,9.14
2017-12-02T15:21:20.713Z,9.12
2017-12-02T15:22:21.184Z,9.09
2017-12-02T15:24:22.151Z,9.04
2017-12-02T15:25:22.751Z,9.02
2017-12-02T15:27:23.527Z,8.98
2017-12-02T15:28:23.990Z,8.96
2017-12-02T15:29:24.518Z,8.94
2017-12-02T15:31:25.405Z,8.90
2017-12-02T15:32:25.873Z,8.88
2017-12-02T15:34:26.808Z,8.83
2017-12-02T15:35:27.272Z,8.81
2017-12-02T15:36:27.778Z,8.78
2017-12-02T15:39:29.155Z,8.71
2017-12-02T15:40:29.624Z,8.70
2017-12-02T15:41:30.092Z,8.67
2017-12-02T15:42:30.806Z,8.65
2017-12-02T15:43:31.031Z,8.62
2017-12-02T15:45:43.866Z,8.58
2017-12-02T15:46:32.429Z,8.56
2017-12-02T15:47:32.906Z,8.53
2017-12-02T15:48:33.373Z,8.52
2017-12-02T15:49:33.842Z,8.52
2017-12-02T15:50:34.352Z,8.50
2017-12-02T15:51:34.779Z,8.49
2017-12-02T15:53:35.716Z,8.43
2017-12-02T15:54:36.182Z,8.42
2017-12-02T15:55:36.823Z,8.42
2017-12-02T15:56:37.118Z,8.40
2017-12-02T15:57:37.581Z,8.37
2017-12-02T15:59:38.532Z,8.32
2017-12-02T16:00:50.931Z,8.30
2017-12-02T16:01:39.454Z,8.28
2017-12-02T16:02:39.922Z,8.28
2017-12-02T16:03:40.397Z,8.27
2017-12-02T16:04:40.860Z,8.25
2017-12-02T16:05:41.327Z,8.24
2017-12-02T16:06:41.794Z,8.22
2017-12-02T16:07:42.263Z,8.19
2017-12-02T16:08:42.731Z,8.16
2017-12-02T16:09:43.201Z,8.13
2017-12-02T16:10:43.702Z,8.14
2017-12-02T16:11:44.136Z,8.12
2017-12-02T16:12:44.605Z,8.11
2017-12-02T16:13:45.073Z,8.09
2017-12-02T16:14:45.541Z,8.08
2017-12-02T16:15:46.008Z,8.06
2017-12-02T16:16:46.476Z,8.05
2017-12-02T16:17:46.945Z,8.03
2017-12-02T16:18:47.413Z,8.01
2017-12-02T16:19:47.883Z,8.01
2017-12-02T16:20:48.406Z,7.98
2017-12-02T16:21:48.816Z,7.98
2017-12-02T16:22:49.284Z,7.96
2017-12-02T16:23:49.755Z,7.93
2017-12-02T16:24:50.218Z,7.91
2017-12-02T16:25:50.690Z,7.89
2017-12-02T16:26:51.155Z,7.89
2017-12-02T16:27:51.631Z,7.87
2017-12-02T16:28:52.122Z,7.86
2017-12-02T16:29:52.567Z,7.84
2017-12-02T16:32:53.992Z,7.80
2017-12-02T16:33:54.458Z,7.78
2017-12-02T16:34:54.903Z,7.76
2017-12-02T16:35:55.370Z,7.74
2017-12-02T16:36:55.840Z,7.74
2017-12-02T16:37:56.301Z,7.73
2017-12-02T16:38:57.170Z,7.71
2017-12-02T16:41:58.199Z,7.67
2017-12-02T16:42:58.669Z,7.64
2017-12-02T16:43:59.112Z,7.64
2017-12-02T16:44:59.572Z,7.63
2017-12-02T16:46:00.046Z,7.59
2017-12-02T16:49:01.477Z,7.54
2017-12-02T16:51:02.415Z,7.52
2017-12-02T16:52:02.851Z,7.49
2017-12-02T16:54:03.867Z,7.47
2017-12-02T16:56:04.721Z,7.45
2017-12-02T16:58:05.649Z,7.42
2017-12-02T17:00:06.614Z,7.41
2017-12-02T17:02:07.524Z,7.38
2017-12-02T17:03:07.992Z,7.38
2017-12-02T17:05:08.918Z,7.34
2017-12-02T17:07:09.858Z,7.32
2017-12-02T17:08:10.325Z,7.32
2017-12-02T17:09:10.788Z,7.30
2017-12-02T17:10:22.942Z,7.28
2017-12-02T17:11:11.727Z,7.28
2017-12-02T17:12:12.195Z,7.24
2017-12-02T17:13:12.665Z,7.23
2017-12-02T17:14:13.129Z,7.23
2017-12-02T17:16:14.065Z,7.19
2017-12-02T17:18:15.159Z,7.14
2017-12-02T17:21:16.568Z,7.11
2017-12-02T17:22:16.864Z,7.10
2017-12-02T17:23:17.331Z,7.10
2017-12-02T17:25:18.285Z,7.06
2017-12-02T17:27:19.192Z,7.05
2017-12-02T17:28:19.665Z,7.04
2017-12-02T17:29:20.295Z,7.04
2017-12-02T17:30:20.599Z,7.03
2017-12-02T17:31:21.224Z,6.99
2017-12-02T17:32:32.957Z,7.00
2017-12-02T17:33:22.163Z,6.98
2017-12-02T17:34:22.459Z,6.96
2017-12-02T17:35:22.930Z,6.96
2017-12-02T17:36:23.397Z,6.95
2017-12-02T17:37:23.952Z,6.94
2017-12-02T17:38:24.325Z,6.93
2017-12-02T17:39:25.202Z,6.91
2017-12-02T17:42:26.248Z,6.90
2017-12-02T17:43:26.662Z,6.89
2017-12-02T17:44:27.129Z,6.89
2017-12-02T17:45:27.593Z,6.87
2017-12-02T17:47:28.582Z,6.85
2017-12-02T17:48:28.995Z,6.84
2017-12-02T17:49:29.457Z,6.82
2017-12-02T17:50:30.089Z,6.83
2017-12-02T17:51:30.558Z,6.83
2017-12-02T17:52:31.027Z,6.81
2017-12-02T17:53:31.327Z,6.80
2017-12-02T17:54:31.817Z,6.79
2017-12-02T17:55:32.287Z,6.79
2017-12-02T17:56:32.723Z,6.78
2017-12-02T17:57:33.219Z,6.77
2017-12-02T17:58:33.661Z,6.76
2017-12-02T17:59:34.126Z,6.76
2017-12-02T18:00:34.587Z,6.75
2017-12-02T18:01:35.085Z,6.74
2017-12-02T18:03:35.991Z,6.72
2017-12-02T18:04:36.457Z,6.70
2017-12-02T18:06:37.390Z,6.69
2017-12-02T18:07:37.850Z,6.68
2017-12-02T18:09:38.812Z,6.66
2017-12-02T18:10:39.256Z,6.66
2017-12-02T18:11:39.738Z,6.63
2017-12-02T18:12:51.970Z,6.61
2017-12-02T18:13:40.653Z,6.61
2017-12-02T18:14:41.150Z,6.60
2017-12-02T18:18:43.025Z,6.56
2017-12-02T18:20:44.078Z,6.54
2017-12-02T18:21:44.399Z,6.53
2017-12-02T18:22:44.849Z,6.52